Terminal Aerodrome Forecast
Issued by NWS

Home | Current Version | Previous Version | Graphics & Text | Print | Product List | Glossary On
Versions: 1 2 3 4 5 6 7 8 9 10 11 12 13 14 15 16
499
FTUS43 KMPX 242129 AAA
TAFRWF
TAF AMD
KRWF 242129Z 2421/2518 15018G27KT P6SM FEW060 SCT180
     FM242200 15011KT 6SM -SHRA VCTS SCT025CB OVC040
      TEMPO 2422/2423 24020G40KT 1 1/2SM +TSRA BR OVC015CB
     FM250600 22009KT P6SM FEW050
     FM251600 27014G22KT P6SM BKN025=

USA.gov is the U.S. government's official web portal to all federal, state and local government web resources and services.